createdAt,value
2017-09-24T00:00:22.849Z,18.83
2017-09-24T00:02:52.836Z,19.17
2017-09-24T00:05:20.615Z,19.30
2017-09-24T00:07:49.532Z,16.60
2017-09-24T00:10:17.350Z,17.20
2017-09-24T00:12:48.133Z,16.53
2017-09-24T00:15:17.654Z,19.43
2017-09-24T00:17:45.774Z,19.53
2017-09-24T00:20:14.349Z,18.27
2017-09-24T00:22:42.114Z,17.40
2017-09-24T00:25:10.560Z,25.50
2017-09-24T00:27:38.660Z,20.20
2017-09-24T00:30:07.536Z,19.50
2017-09-24T00:32:35.375Z,16.83
2017-09-24T00:35:04.274Z,18.20
2017-09-24T00:37:34.042Z,18.53
2017-09-24T00:40:01.992Z,18.33
2017-09-24T00:42:29.684Z,20.20
2017-09-24T00:44:57.467Z,17.20
2017-09-24T00:47:25.474Z,16.13
2017-09-24T00:49:53.996Z,17.67
2017-09-24T00:52:21.747Z,20.13
2017-09-24T00:55:11.375Z,19.80
2017-09-24T00:57:39.126Z,20.43
2017-09-24T01:00:06.968Z,21.13
2017-09-24T01:02:34.791Z,19.20
2017-09-24T01:05:04.158Z,20.13
2017-09-24T01:07:31.916Z,16.70
2017-09-24T01:09:59.643Z,17.20
2017-09-24T01:12:27.415Z,17.70
2017-09-24T01:14:55.147Z,18.53
2017-09-24T01:17:23.841Z,15.27
2017-09-24T01:19:51.608Z,16.33
2017-09-24T01:22:20.677Z,18.10
2017-09-24T01:24:49.184Z,18.50
2017-09-24T01:27:16.920Z,17.97
2017-09-24T01:29:44.723Z,18.47
2017-09-24T01:32:12.915Z,15.93
2017-09-24T01:34:44.309Z,15.00
2017-09-24T01:37:13.012Z,15.57
2017-09-24T01:39:40.760Z,16.77
2017-09-24T01:42:08.604Z,15.50
2017-09-24T01:44:36.401Z,14.20
2017-09-24T01:47:09.960Z,12.80
2017-09-24T01:49:38.550Z,15.53
2017-09-24T01:52:06.364Z,14.53
2017-09-24T01:54:34.889Z,15.70
2017-09-24T01:57:02.672Z,18.03
2017-09-24T01:59:31.311Z,17.53
2017-09-24T02:01:59.459Z,18.10
2017-09-24T02:04:28.243Z,17.33
2017-09-24T02:06:57.631Z,15.30
2017-09-24T02:09:25.542Z,15.13
2017-09-24T02:11:53.426Z,16.03
2017-09-24T02:14:22.067Z,14.40
2017-09-24T02:16:51.419Z,14.90
2017-09-24T02:19:19.962Z,15.83
2017-09-24T02:21:49.497Z,13.83
2017-09-24T02:24:18.419Z,15.40
2017-09-24T02:26:48.274Z,16.77
2017-09-24T02:29:17.025Z,19.03
2017-09-24T02:31:44.857Z,18.13
2017-09-24T02:34:12.744Z,18.90
2017-09-24T02:36:40.548Z,17.70
2017-09-24T02:39:08.278Z,17.40
2017-09-24T02:41:37.181Z,17.00
2017-09-24T02:44:05.755Z,18.17
2017-09-24T02:46:33.459Z,18.37
2017-09-24T02:49:01.265Z,17.50
2017-09-24T02:51:30.485Z,16.90
2017-09-24T02:53:59.999Z,18.60
2017-09-24T02:56:28.063Z,18.90
2017-09-24T02:58:55.805Z,17.07
2017-09-24T03:01:23.836Z,16.83
2017-09-24T03:03:51.564Z,17.43
2017-09-24T03:06:20.213Z,17.90
2017-09-24T03:08:47.986Z,15.60
2017-09-24T03:11:17.326Z,17.40
2017-09-24T03:13:45.867Z,17.97
2017-09-24T03:16:14.843Z,20.07
2017-09-24T03:18:43.382Z,18.00
2017-09-24T03:21:11.111Z,16.67
2017-09-24T03:23:38.923Z,17.33
2017-09-24T03:26:06.702Z,16.83
2017-09-24T03:28:34.470Z,16.50
2017-09-24T03:31:02.298Z,15.83
2017-09-24T03:33:30.085Z,19.07
2017-09-24T03:35:57.825Z,16.50
2017-09-24T03:38:25.552Z,17.63
2017-09-24T03:40:54.229Z,14.97
2017-09-24T03:43:23.151Z,15.97
2017-09-24T03:45:52.585Z,16.93
2017-09-24T03:48:21.171Z,21.10
2017-09-24T03:50:49.946Z,24.63
2017-09-24T03:53:17.821Z,20.33
2017-09-24T03:55:45.627Z,18.83
2017-09-24T03:58:14.981Z,21.50
2017-09-24T04:00:42.750Z,20.80
2017-09-24T04:03:10.647Z,21.60
2017-09-24T04:05:38.412Z,20.53
2017-09-24T04:08:06.152Z,22.43
2017-09-24T04:10:33.855Z,18.27
2017-09-24T04:13:01.627Z,16.43
2017-09-24T04:15:30.176Z,17.40
2017-09-24T04:17:58.185Z,19.10
2017-09-24T04:20:25.924Z,14.73
2017-09-24T04:22:53.667Z,14.30
2017-09-24T04:25:21.461Z,15.60
2017-09-24T04:27:49.195Z,12.77
2017-09-24T04:30:18.871Z,12.97
2017-09-24T04:32:47.393Z,16.60
2017-09-24T04:35:15.095Z,14.97
2017-09-24T04:37:44.554Z,16.47
2017-09-24T04:40:22.805Z,13.17
2017-09-24T04:42:51.322Z,15.20
2017-09-24T04:45:19.816Z,14.37
2017-09-24T04:47:47.595Z,12.07
2017-09-24T04:50:15.305Z,13.30
2017-09-24T04:52:42.993Z,13.60
2017-09-24T04:55:11.743Z,11.90
2017-09-24T04:57:39.471Z,10.80
2017-09-24T05:00:07.261Z,11.73
2017-09-24T05:02:34.980Z,14.60
2017-09-24T05:05:02.711Z,14.30
2017-09-24T05:07:30.535Z,15.83
2017-09-24T05:09:58.372Z,16.07
2017-09-24T05:12:26.569Z,15.00
2017-09-24T05:14:54.350Z,14.10
2017-09-24T05:17:22.195Z,14.20
2017-09-24T05:19:49.868Z,15.00
2017-09-24T05:22:17.661Z,12.50
2017-09-24T05:24:45.495Z,11.80
2017-09-24T05:27:14.013Z,12.53
2017-09-24T05:29:41.717Z,13.50
2017-09-24T05:32:09.506Z,13.30
2017-09-24T05:34:38.077Z,11.53
2017-09-24T05:42:49.212Z,10.27
2017-09-24T05:45:17.985Z,9.63
2017-09-24T05:47:46.929Z,11.60
2017-09-24T05:50:15.281Z,16.73
2017-09-24T05:52:43.086Z,16.53
2017-09-24T05:55:12.312Z,14.13
2017-09-24T05:57:40.623Z,13.00
2017-09-24T06:00:08.521Z,12.63
2017-09-24T06:02:39.106Z,27.03
2017-09-24T06:05:12.568Z,28.40
2017-09-24T06:07:41.463Z,20.07
2017-09-24T06:10:12.826Z,15.93
2017-09-24T06:12:42.810Z,16.20
2017-09-24T06:15:11.943Z,12.63
2017-09-24T06:17:40.513Z,16.13
2017-09-24T06:20:08.230Z,13.97
2017-09-24T06:22:36.563Z,13.67
2017-09-24T06:25:05.565Z,14.13
2017-09-24T06:27:34.054Z,11.63
2017-09-24T06:30:01.736Z,13.60
2017-09-24T06:32:29.655Z,11.87
2017-09-24T06:34:57.771Z,13.87
2017-09-24T06:37:32.881Z,15.60
2017-09-24T06:40:04.732Z,14.80
2017-09-24T06:42:40.302Z,14.27
2017-09-24T06:45:13.142Z,12.93
2017-09-24T06:47:40.967Z,13.43
2017-09-24T06:50:09.750Z,13.37
2017-09-24T06:52:40.705Z,13.80
2017-09-24T06:55:17.751Z,16.00
2017-09-24T06:57:47.611Z,15.63
2017-09-24T07:00:21.399Z,11.97
2017-09-24T07:02:51.612Z,10.50
2017-09-24T07:05:20.739Z,10.90
2017-09-24T07:07:51.056Z,12.67
2017-09-24T07:10:19.799Z,14.67
2017-09-24T07:12:50.719Z,15.00
2017-09-24T07:15:20.960Z,14.83
2017-09-24T07:17:57.226Z,14.57
2017-09-24T07:20:33.224Z,14.03
2017-09-24T07:23:03.209Z,12.50
2017-09-24T07:25:32.605Z,12.77
2017-09-24T07:28:01.092Z,11.03
2017-09-24T07:30:29.075Z,11.33
2017-09-24T07:32:56.809Z,11.50
2017-09-24T07:53:55.758Z,10.80
2017-09-24T07:57:04.454Z,11.73
2017-09-24T08:09:36.043Z,10.00
2017-09-24T08:12:03.739Z,8.57
2017-09-24T08:14:31.437Z,9.43
2017-09-24T08:16:59.275Z,9.30
2017-09-24T08:19:27.001Z,9.73
2017-09-24T08:21:54.746Z,22.83
2017-09-24T08:24:22.416Z,16.23
2017-09-24T08:26:50.112Z,16.17
2017-09-24T08:29:17.869Z,14.37
2017-09-24T08:31:45.522Z,16.60
2017-09-24T08:34:13.235Z,15.43
2017-09-24T08:36:41.770Z,14.47
2017-09-24T08:39:09.503Z,13.77
2017-09-24T08:41:37.187Z,14.53
2017-09-24T08:44:04.943Z,13.37
2017-09-24T08:46:32.650Z,12.33
2017-09-24T08:49:00.321Z,11.23
2017-09-24T08:51:28.038Z,11.10
2017-09-24T08:53:55.749Z,10.47
2017-09-24T08:56:23.755Z,10.50
2017-09-24T08:58:51.663Z,10.70
2017-09-24T09:01:19.348Z,10.57
2017-09-24T09:03:47.012Z,11.87
2017-09-24T09:06:14.811Z,11.40
2017-09-24T09:08:42.511Z,12.10
2017-09-24T09:11:10.312Z,12.37
2017-09-24T09:13:38.019Z,16.63
2017-09-24T09:16:05.751Z,10.60
2017-09-24T09:21:36.825Z,13.20
2017-09-24T09:24:04.616Z,10.50
2017-09-24T09:26:32.733Z,11.00
2017-09-24T09:29:00.460Z,11.20
2017-09-24T09:31:28.175Z,11.00
2017-09-24T09:33:55.898Z,10.47
2017-09-24T09:36:23.646Z,10.33
2017-09-24T09:38:51.355Z,9.40
2017-09-24T09:41:19.100Z,9.90
2017-09-24T09:43:46.892Z,8.33
2017-09-24T09:46:26.530Z,9.10
2017-09-24T09:48:54.182Z,6.43
2017-09-24T09:51:23.075Z,6.20
2017-09-24T09:53:50.819Z,6.00
2017-09-24T09:56:18.508Z,15.60
2017-09-24T09:58:48.368Z,23.93
2017-09-24T10:01:16.032Z,14.23
2017-09-24T10:03:43.857Z,7.43
2017-09-24T10:06:11.568Z,13.83
2017-09-24T10:11:52.218Z,6.80
2017-09-24T10:14:20.016Z,5.63
2017-09-24T10:16:49.787Z,6.80
2017-09-24T10:19:17.638Z,7.40
2017-09-24T10:37:00.681Z,7.47
2017-09-24T10:39:31.850Z,5.90
2017-09-24T10:42:19.802Z,6.73
2017-09-24T10:44:51.774Z,7.87
2017-09-24T10:47:22.977Z,7.87
2017-09-24T10:49:54.497Z,8.33
2017-09-24T10:58:23.063Z,6.90
2017-09-24T11:00:57.981Z,9.30
2017-09-24T11:03:53.413Z,8.03
2017-09-24T11:09:18.841Z,6.87
2017-09-24T11:11:53.922Z,9.03
2017-09-24T11:14:29.444Z,7.87
2017-09-24T11:17:02.770Z,8.57
2017-09-24T11:19:30.576Z,9.77
2017-09-24T11:21:58.352Z,10.47
2017-09-24T11:24:26.187Z,13.70
2017-09-24T11:26:54.685Z,15.37
2017-09-24T11:29:23.362Z,13.83
2017-09-24T11:31:51.063Z,15.10
2017-09-24T11:34:23.894Z,17.00
2017-09-24T11:36:51.616Z,17.20
2017-09-24T11:39:22.002Z,18.80
2017-09-24T11:41:49.887Z,17.70
2017-09-24T11:44:17.617Z,18.20
2017-09-24T11:46:47.454Z,16.80
2017-09-24T11:49:18.728Z,15.30
2017-09-24T11:51:47.458Z,15.13
2017-09-24T11:54:15.238Z,14.37
2017-09-24T11:56:43.009Z,15.13
2017-09-24T11:59:10.842Z,17.97
2017-09-24T12:01:38.653Z,18.80
2017-09-24T12:04:07.185Z,17.67
2017-09-24T12:06:34.944Z,20.47
2017-09-24T12:09:09.866Z,18.50
2017-09-24T12:11:43.681Z,17.23
2017-09-24T12:14:26.551Z,17.90
2017-09-24T12:17:05.487Z,20.00
2017-09-24T12:19:49.899Z,20.37
2017-09-24T12:25:27.464Z,23.60
2017-09-24T12:27:59.039Z,24.30
2017-09-24T12:30:33.436Z,28.83
2017-09-24T12:33:03.129Z,24.40
2017-09-24T12:35:34.070Z,25.03
2017-09-24T12:38:04.738Z,23.53
2017-09-24T12:40:35.599Z,25.13
2017-09-24T12:43:06.034Z,24.83
2017-09-24T12:45:37.745Z,25.30
2017-09-24T12:48:08.287Z,26.37
2017-09-24T12:50:40.622Z,24.93
2017-09-24T12:53:09.335Z,23.33
2017-09-24T12:55:37.199Z,23.50
2017-09-24T12:58:05.548Z,25.50
2017-09-24T13:00:34.071Z,22.87
2017-09-24T13:03:01.958Z,24.00
2017-09-24T13:05:34.624Z,25.63
2017-09-24T13:08:05.067Z,26.77
2017-09-24T13:10:34.851Z,34.47
2017-09-24T13:13:14.623Z,32.50
2017-09-24T13:15:44.735Z,31.10
2017-09-24T13:18:16.834Z,27.57
2017-09-24T13:20:46.845Z,28.47
2017-09-24T13:23:16.508Z,28.80
2017-09-24T13:25:46.934Z,26.37
2017-09-24T13:28:23.208Z,27.40
2017-09-24T13:30:51.974Z,28.20
2017-09-24T13:33:38.290Z,27.20
2017-09-24T13:36:09.013Z,30.43
2017-09-24T13:38:38.502Z,28.43
2017-09-24T13:41:07.352Z,31.30
2017-09-24T13:43:37.447Z,30.40
2017-09-24T13:46:10.301Z,32.30
2017-09-24T13:48:43.477Z,32.80
2017-09-24T13:51:21.492Z,33.30
2017-09-24T13:53:52.075Z,32.73
2017-09-24T13:56:27.355Z,29.50
2017-09-24T13:59:05.913Z,28.00
2017-09-24T14:01:44.418Z,32.30
2017-09-24T14:04:15.851Z,29.50
2017-09-24T14:06:49.481Z,29.67
2017-09-24T14:09:20.312Z,32.80
2017-09-24T14:11:52.393Z,29.37
2017-09-24T14:14:21.120Z,34.20
2017-09-24T14:16:51.279Z,31.27
2017-09-24T14:19:22.867Z,30.53
2017-09-24T14:21:55.472Z,32.07
2017-09-24T14:24:28.577Z,29.77
2017-09-24T14:26:56.996Z,31.83
2017-09-24T14:29:28.460Z,28.40
2017-09-24T14:31:57.720Z,28.20
2017-09-24T14:34:25.588Z,28.83
2017-09-24T14:36:53.370Z,26.67
2017-09-24T14:42:19.965Z,32.40
